Time;durP1;ratioP1;P1;durP2;ratioP2;P2;SDS_P1;SDS_P2;PMS_P1;PMS_P2;Temp;Humidity;BMP_temperature;BMP_pressure;BME280_temperature;BME280_humidity;BME280_pressure;Samples;Min_cycle;Max_cycle;Signal;HPM_P1;HPM_P2
2022/01/11 00:00:08;;;;;;;159.77;38.65;;;;;;;;;;5009217;28;20042;-67
2022/01/11 00:02:37;;;;;;;163.05;38.40;;;;;;;;;;5006675;28;20033;-67
2022/01/11 00:05:03;;;;;;;175.68;41.25;;;;;;;;;;5009515;28;20041;-69
2022/01/11 00:07:32;;;;;;;173.27;38.63;;;;;;;;;;5008849;28;20042;-67
2022/01/11 00:09:58;;;;;;;166.20;37.85;;;;;;;;;;5005765;28;20087;-68
2022/01/11 00:12:24;;;;;;;152.35;36.92;;;;;;;;;;4984300;28;20459;-67
2022/01/11 00:14:50;;;;;;;172.65;38.60;;;;;;;;;;5009594;28;20026;-68
2022/01/11 00:17:16;;;;;;;161.57;37.90;;;;;;;;;;5009318;28;20033;-68
2022/01/11 00:19:45;;;;;;;158.05;36.08;;;;;;;;;;5008873;28;20076;-68
2022/01/11 00:22:18;;;;;;;175.38;38.92;;;;;;;;;;5009841;28;20046;-68
2022/01/11 00:24:44;;;;;;;156.35;36.85;;;;;;;;;;5009822;28;20055;-68
2022/01/11 00:27:11;;;;;;;146.80;35.72;;;;;;;;;;5009133;28;20030;-69
2022/01/11 00:29:44;;;;;;;163.48;37.92;;;;;;;;;;5009507;28;20030;-68
2022/01/11 00:32:15;;;;;;;165.85;38.45;;;;;;;;;;5010063;28;20030;-68
2022/01/11 00:34:50;;;;;;;160.13;38.22;;;;;;;;;;5007674;28;20056;-68
2022/01/11 00:37:16;;;;;;;180.52;39.05;;;;;;;;;;5007540;28;20423;-68
2022/01/11 00:39:43;;;;;;;195.52;42.63;;;;;;;;;;5008472;28;20038;-69
2022/01/11 00:42:10;;;;;;;182.40;41.38;;;;;;;;;;5009411;28;20108;-68
2022/01/11 00:44:36;;;;;;;184.55;42.15;;;;;;;;;;5009077;28;20448;-68
2022/01/11 00:47:02;;;;;;;190.70;41.80;;;;;;;;;;5007890;28;20061;-67
2022/01/11 00:49:28;;;;;;;193.52;43.03;;;;;;;;;;5008588;28;20112;-67
2022/01/11 00:51:54;;;;;;;176.02;41.08;;;;;;;;;;5007095;28;20042;-67
2022/01/11 00:54:20;;;;;;;191.70;41.88;;;;;;;;;;5007964;28;20128;-67
2022/01/11 00:56:46;;;;;;;187.30;42.63;;;;;;;;;;5008132;28;20118;-67
2022/01/11 00:59:12;;;;;;;174.88;40.90;;;;;;;;;;5009064;28;20124;-68
2022/01/11 01:01:38;;;;;;;197.32;44.15;;;;;;;;;;5008624;28;20502;-69
2022/01/11 01:04:05;;;;;;;181.98;39.60;;;;;;;;;;5007665;28;20109;-67
2022/01/11 01:06:31;;;;;;;174.90;40.80;;;;;;;;;;5007490;28;20483;-68
2022/01/11 01:08:58;;;;;;;161.75;39.72;;;;;;;;;;4985787;28;20026;-66
2022/01/11 01:11:24;;;;;;;161.32;39.28;;;;;;;;;;5005071;28;20039;-67
2022/01/11 01:13:50;;;;;;;150.27;39.83;;;;;;;;;;5008168;28;20030;-67
2022/01/11 01:16:17;;;;;;;158.88;37.75;;;;;;;;;;5008094;28;20029;-68
2022/01/11 01:18:43;;;;;;;165.45;40.30;;;;;;;;;;5007760;28;20450;-67
2022/01/11 01:21:09;;;;;;;162.13;37.53;;;;;;;;;;5009173;28;20030;-68
2022/01/11 01:23:35;;;;;;;165.80;39.85;;;;;;;;;;4982039;28;20077;-67
2022/01/11 01:26:02;;;;;;;169.13;39.80;;;;;;;;;;5006521;28;20034;-67
2022/01/11 01:28:28;;;;;;;161.05;38.80;;;;;;;;;;5008427;28;20384;-67
2022/01/11 01:30:55;;;;;;;167.45;40.75;;;;;;;;;;5008634;28;20038;-67
2022/01/11 01:33:22;;;;;;;178.98;38.88;;;;;;;;;;5007260;28;20152;-67
2022/01/11 01:35:51;;;;;;;185.00;42.10;;;;;;;;;;5008408;28;20472;-67
2022/01/11 01:38:22;;;;;;;172.55;39.92;;;;;;;;;;5006493;28;20508;-67
2022/01/11 01:40:49;;;;;;;186.25;44.67;;;;;;;;;;5006688;28;20042;-67
2022/01/11 01:43:15;;;;;;;186.50;43.58;;;;;;;;;;5007564;28;21776;-68
2022/01/11 01:45:43;;;;;;;186.10;42.80;;;;;;;;;;5008528;28;20029;-67
2022/01/11 01:48:11;;;;;;;177.48;42.83;;;;;;;;;;5010517;28;20026;-67
2022/01/11 01:50:37;;;;;;;183.15;40.33;;;;;;;;;;5007731;28;20034;-67
2022/01/11 01:53:07;;;;;;;189.27;42.85;;;;;;;;;;5005052;28;20060;-67
2022/01/11 01:55:33;;;;;;;174.95;41.83;;;;;;;;;;5007082;28;20137;-67
2022/01/11 01:57:59;;;;;;;174.93;42.60;;;;;;;;;;5008019;28;20087;-67
2022/01/11 02:00:28;;;;;;;181.80;42.80;;;;;;;;;;5005867;28;20042;-66
2022/01/11 02:03:02;;;;;;;174.93;40.47;;;;;;;;;;5006749;28;20761;-67
2022/01/11 02:05:28;;;;;;;174.23;40.80;;;;;;;;;;5007383;28;20041;-67
2022/01/11 02:07:54;;;;;;;169.38;40.63;;;;;;;;;;5007004;28;20030;-67
2022/01/11 02:10:20;;;;;;;172.95;39.80;;;;;;;;;;5006311;28;20073;-67
2022/01/11 02:12:46;;;;;;;176.90;39.83;;;;;;;;;;5005970;28;20088;-67
2022/01/11 02:15:12;;;;;;;164.98;39.78;;;;;;;;;;5006187;28;20117;-68
2022/01/11 02:17:38;;;;;;;166.63;38.58;;;;;;;;;;5009698;28;20053;-68
2022/01/11 02:20:05;;;;;;;169.50;39.70;;;;;;;;;;5011259;28;20474;-67
2022/01/11 02:22:31;;;;;;;170.65;41.88;;;;;;;;;;4988732;28;20456;-67
2022/01/11 02:24:57;;;;;;;160.18;39.47;;;;;;;;;;5010625;28;20061;-67
2022/01/11 02:27:23;;;;;;;162.70;40.47;;;;;;;;;;5011520;28;20101;-68
2022/01/11 02:29:49;;;;;;;165.27;40.60;;;;;;;;;;5011162;28;20041;-68
2022/01/11 02:32:15;;;;;;;166.48;38.65;;;;;;;;;;5010253;28;20037;-67
2022/01/11 02:34:41;;;;;;;166.57;40.53;;;;;;;;;;5011030;28;20121;-68
2022/01/11 02:37:07;;;;;;;172.93;41.25;;;;;;;;;;5010957;28;20034;-67
2022/01/11 02:39:34;;;;;;;149.65;39.08;;;;;;;;;;5011425;28;20511;-68
2022/01/11 02:42:02;;;;;;;168.27;41.13;;;;;;;;;;5011720;28;20026;-67
2022/01/11 02:44:28;;;;;;;166.77;38.42;;;;;;;;;;5011179;28;20030;-66
2022/01/11 02:46:54;;;;;;;164.75;40.25;;;;;;;;;;5009874;28;20494;-67
2022/01/11 02:49:20;;;;;;;171.10;38.75;;;;;;;;;;5009963;28;20048;-67
2022/01/11 02:51:47;;;;;;;169.10;39.95;;;;;;;;;;5010445;28;20491;-67
2022/01/11 02:54:13;;;;;;;173.85;38.47;;;;;;;;;;5011286;28;20053;-68
2022/01/11 02:56:39;;;;;;;172.73;39.00;;;;;;;;;;5010215;28;20022;-67
2022/01/11 02:59:05;;;;;;;170.57;42.83;;;;;;;;;;5011090;28;20632;-67
2022/01/11 03:01:31;;;;;;;165.35;39.88;;;;;;;;;;5011042;28;20045;-67
2022/01/11 03:03:58;;;;;;;163.50;39.40;;;;;;;;;;5010001;28;20029;-68
2022/01/11 03:06:24;;;;;;;187.85;40.85;;;;;;;;;;5010839;28;20030;-67
2022/01/11 03:08:50;;;;;;;178.27;40.08;;;;;;;;;;5010960;28;20036;-68
2022/01/11 03:11:17;;;;;;;184.98;41.92;;;;;;;;;;5011375;28;20034;-67
2022/01/11 03:13:43;;;;;;;179.52;43.10;;;;;;;;;;5011902;28;20018;-67
2022/01/11 03:16:10;;;;;;;187.27;41.90;;;;;;;;;;4982617;28;20037;-68
2022/01/11 03:18:36;;;;;;;174.27;40.10;;;;;;;;;;5010373;28;20076;-68
2022/01/11 03:21:03;;;;;;;176.52;41.03;;;;;;;;;;5009129;28;20026;-67
2022/01/11 03:23:30;;;;;;;182.45;41.33;;;;;;;;;;4987451;28;20117;-67
2022/01/11 03:25:56;;;;;;;171.00;40.83;;;;;;;;;;5010815;28;20040;-68
2022/01/11 03:28:23;;;;;;;172.50;39.85;;;;;;;;;;5009737;28;20123;-68
2022/01/11 03:30:50;;;;;;;173.27;41.47;;;;;;;;;;5009444;28;20034;-68
2022/01/11 03:33:17;;;;;;;166.63;40.13;;;;;;;;;;5010344;28;20045;-67
2022/01/11 03:35:44;;;;;;;171.48;39.80;;;;;;;;;;5007672;28;20125;-67
2022/01/11 03:38:12;;;;;;;170.48;42.03;;;;;;;;;;5009727;28;20025;-67
2022/01/11 03:40:39;;;;;;;172.38;41.25;;;;;;;;;;5010531;28;20030;-68
2022/01/11 03:43:05;;;;;;;159.63;40.40;;;;;;;;;;5010202;28;20356;-67
2022/01/11 03:45:31;;;;;;;181.95;41.88;;;;;;;;;;5009005;28;20113;-67
2022/01/11 03:47:58;;;;;;;175.85;39.45;;;;;;;;;;5009580;28;20104;-67
2022/01/11 03:50:25;;;;;;;157.88;37.85;;;;;;;;;;5009160;28;20045;-67
2022/01/11 03:52:58;;;;;;;165.63;40.10;;;;;;;;;;4984303;28;20602;-67
2022/01/11 03:55:43;;;;;;;160.15;38.83;;;;;;;;;;5009622;28;20057;-67
2022/01/11 03:58:10;;;;;;;160.65;39.83;;;;;;;;;;5009827;28;20486;-67
2022/01/11 04:00:36;;;;;;;163.80;40.38;;;;;;;;;;5009791;28;20481;-67
2022/01/11 04:03:03;;;;;;;154.68;35.33;;;;;;;;;;5009324;28;20041;-67
2022/01/11 04:05:29;;;;;;;155.57;40.75;;;;;;;;;;5009479;28;20130;-67
2022/01/11 04:07:55;;;;;;;153.75;36.70;;;;;;;;;;5010440;28;20046;-68
2022/01/11 04:10:21;;;;;;;171.63;39.05;;;;;;;;;;5010851;28;20022;-67
2022/01/11 04:12:48;;;;;;;162.80;40.22;;;;;;;;;;5011517;28;20033;-67
2022/01/11 04:15:15;;;;;;;159.25;38.78;;;;;;;;;;5010546;28;20060;-67
2022/01/11 04:17:41;;;;;;;163.40;38.60;;;;;;;;;;5008780;28;20049;-67
2022/01/11 04:20:07;;;;;;;168.98;39.53;;;;;;;;;;5009888;28;20491;-67
2022/01/11 04:22:33;;;;;;;166.70;39.30;;;;;;;;;;5009726;28;20066;-67
2022/01/11 04:24:59;;;;;;;188.45;41.80;;;;;;;;;;5009747;28;20075;-68
2022/01/11 04:27:25;;;;;;;173.65;39.88;;;;;;;;;;5009507;28;20064;-66
2022/01/11 04:29:51;;;;;;;193.82;42.72;;;;;;;;;;5010289;28;20038;-67
2022/01/11 04:32:17;;;;;;;179.23;41.03;;;;;;;;;;5009012;28;20022;-67
2022/01/11 04:34:43;;;;;;;173.20;41.63;;;;;;;;;;4991825;28;20030;-67
2022/01/11 04:37:09;;;;;;;172.13;41.50;;;;;;;;;;4981484;28;20144;-67
2022/01/11 04:39:35;;;;;;;180.43;40.42;;;;;;;;;;5008810;28;20518;-67
2022/01/11 04:42:01;;;;;;;173.88;40.72;;;;;;;;;;5008730;28;20046;-67
2022/01/11 04:44:27;;;;;;;176.27;41.83;;;;;;;;;;5009315;28;20123;-68
2022/01/11 04:46:54;;;;;;;176.02;41.42;;;;;;;;;;5007042;28;20105;-67
2022/01/11 04:49:20;;;;;;;155.55;40.70;;;;;;;;;;5008454;28;20030;-66
2022/01/11 04:51:46;;;;;;;160.07;39.88;;;;;;;;;;5007417;28;20120;-67
2022/01/11 04:54:13;;;;;;;174.82;43.40;;;;;;;;;;5004565;28;20314;-67
2022/01/11 04:56:39;;;;;;;171.10;42.83;;;;;;;;;;5008736;28;20475;-67
2022/01/11 04:59:05;;;;;;;183.02;42.00;;;;;;;;;;5008359;28;20033;-67
2022/01/11 05:01:31;;;;;;;170.73;42.20;;;;;;;;;;5006373;28;20034;-67
2022/01/11 05:03:58;;;;;;;177.88;44.13;;;;;;;;;;5007216;28;20060;-68
2022/01/11 05:06:24;;;;;;;173.88;43.40;;;;;;;;;;4977432;28;20030;-68
2022/01/11 05:08:50;;;;;;;176.93;41.28;;;;;;;;;;5006851;28;20072;-68
2022/01/11 05:11:17;;;;;;;165.88;42.50;;;;;;;;;;4978317;28;20030;-68
2022/01/11 05:13:43;;;;;;;182.73;45.28;;;;;;;;;;5002806;28;20102;-68
2022/01/11 05:16:09;;;;;;;182.00;43.35;;;;;;;;;;5008442;28;20081;-67
2022/01/11 05:18:36;;;;;;;162.23;43.30;;;;;;;;;;5007540;28;20045;-67
2022/01/11 05:21:02;;;;;;;160.13;40.72;;;;;;;;;;4983498;28;20454;-68
2022/01/11 05:23:28;;;;;;;164.40;43.85;;;;;;;;;;5007781;28;20258;-68
2022/01/11 05:25:54;;;;;;;168.43;42.08;;;;;;;;;;5008824;28;20429;-68
2022/01/11 05:28:20;;;;;;;166.05;45.22;;;;;;;;;;5008376;28;20029;-68
2022/01/11 05:30:46;;;;;;;143.48;41.55;;;;;;;;;;5008150;28;20046;-67
2022/01/11 05:33:12;;;;;;;145.10;40.97;;;;;;;;;;5009055;28;20030;-67
2022/01/11 05:35:38;;;;;;;160.27;44.47;;;;;;;;;;5008689;28;20403;-67
2022/01/11 05:38:04;;;;;;;177.40;44.47;;;;;;;;;;4990090;28;20506;-68
2022/01/11 05:40:30;;;;;;;173.48;44.33;;;;;;;;;;5008588;28;20137;-67
2022/01/11 05:42:56;;;;;;;163.75;44.15;;;;;;;;;;5008565;28;20029;-67
2022/01/11 05:45:22;;;;;;;156.75;42.70;;;;;;;;;;5008553;28;20487;-67
2022/01/11 05:47:52;;;;;;;161.98;44.53;;;;;;;;;;5006999;28;20052;-66
2022/01/11 05:50:18;;;;;;;148.60;43.92;;;;;;;;;;5008571;28;20022;-67
2022/01/11 05:52:44;;;;;;;146.60;42.05;;;;;;;;;;5012372;28;20506;-67
2022/01/11 05:55:11;;;;;;;153.85;43.90;;;;;;;;;;5012475;28;20073;-67
2022/01/11 05:57:37;;;;;;;135.13;39.97;;;;;;;;;;5012641;28;20038;-67
2022/01/11 06:00:05;;;;;;;144.20;41.03;;;;;;;;;;5012003;28;20121;-67
2022/01/11 06:02:31;;;;;;;141.40;41.45;;;;;;;;;;5011444;28;20070;-68
2022/01/11 06:04:57;;;;;;;137.73;40.97;;;;;;;;;;5011602;28;20475;-68
2022/01/11 06:07:23;;;;;;;150.52;42.72;;;;;;;;;;5012617;28;20038;-68
2022/01/11 06:09:49;;;;;;;127.60;40.33;;;;;;;;;;5010462;28;20018;-68
2022/01/11 06:12:15;;;;;;;148.90;40.92;;;;;;;;;;5011479;28;20104;-67
2022/01/11 06:14:41;;;;;;;150.70;41.38;;;;;;;;;;5010479;28;20041;-67
2022/01/11 06:17:07;;;;;;;149.93;43.03;;;;;;;;;;5012183;28;20038;-67
2022/01/11 06:19:34;;;;;;;150.65;43.22;;;;;;;;;;5011558;28;20030;-67
2022/01/11 06:22:00;;;;;;;161.68;44.03;;;;;;;;;;5011116;28;20057;-67
2022/01/11 06:24:26;;;;;;;150.10;44.13;;;;;;;;;;5008690;28;20038;-68
2022/01/11 06:26:52;;;;;;;147.55;42.85;;;;;;;;;;5010494;28;20491;-68
2022/01/11 06:29:18;;;;;;;149.05;41.90;;;;;;;;;;5010394;28;20120;-68
2022/01/11 06:31:44;;;;;;;144.85;41.15;;;;;;;;;;5010165;28;20042;-68
2022/01/11 06:34:10;;;;;;;140.52;42.33;;;;;;;;;;5008155;28;20561;-67
2022/01/11 06:36:36;;;;;;;150.88;43.63;;;;;;;;;;5008789;28;20499;-68
2022/01/11 06:39:03;;;;;;;153.35;42.92;;;;;;;;;;5011680;28;20028;-68
2022/01/11 06:41:29;;;;;;;153.88;41.92;;;;;;;;;;5011661;28;20115;-68
2022/01/11 06:43:55;;;;;;;157.35;43.00;;;;;;;;;;5010425;28;20041;-68
2022/01/11 06:46:23;;;;;;;148.93;42.10;;;;;;;;;;5011627;28;20057;-68
2022/01/11 06:48:50;;;;;;;153.35;41.78;;;;;;;;;;5011526;28;20038;-68
2022/01/11 06:51:17;;;;;;;150.55;42.97;;;;;;;;;;5008806;28;20467;-68
2022/01/11 06:53:43;;;;;;;138.50;39.45;;;;;;;;;;5010431;28;20041;-69
2022/01/11 06:56:09;;;;;;;136.52;39.65;;;;;;;;;;4986467;28;20073;-67
2022/01/11 06:58:35;;;;;;;140.05;40.92;;;;;;;;;;5010856;28;20042;-67
2022/01/11 07:01:01;;;;;;;136.98;42.80;;;;;;;;;;5010347;28;20096;-67
2022/01/11 07:03:28;;;;;;;151.98;42.28;;;;;;;;;;5007508;28;20495;-68
2022/01/11 07:05:54;;;;;;;137.80;40.45;;;;;;;;;;5010490;28;20030;-68
2022/01/11 07:08:20;;;;;;;131.15;39.13;;;;;;;;;;4985134;28;20029;-69
2022/01/11 07:10:46;;;;;;;145.07;44.00;;;;;;;;;;5010034;28;20025;-68
2022/01/11 07:13:15;;;;;;;134.82;40.70;;;;;;;;;;5011228;28;20403;-68
2022/01/11 07:15:41;;;;;;;141.43;41.53;;;;;;;;;;5010807;28;20084;-68
2022/01/11 07:18:10;;;;;;;146.02;42.10;;;;;;;;;;5008606;28;20087;-68
2022/01/11 07:20:37;;;;;;;132.27;38.42;;;;;;;;;;5010880;28;20098;-68
2022/01/11 07:23:03;;;;;;;129.20;39.08;;;;;;;;;;4994232;28;20073;-68
2022/01/11 07:25:32;;;;;;;132.07;39.65;;;;;;;;;;5011769;28;20022;-68
2022/01/11 07:27:58;;;;;;;130.68;39.70;;;;;;;;;;5011755;28;20046;-67
2022/01/11 07:30:25;;;;;;;128.73;39.88;;;;;;;;;;5005474;28;20038;-67
2022/01/11 07:32:51;;;;;;;127.18;40.97;;;;;;;;;;5011215;28;20021;-68
2022/01/11 07:35:17;;;;;;;133.88;38.58;;;;;;;;;;5011833;28;20029;-68
2022/01/11 07:37:43;;;;;;;125.25;39.05;;;;;;;;;;5011402;28;20034;-68
2022/01/11 07:40:09;;;;;;;124.32;41.45;;;;;;;;;;5005176;28;20158;-67
2022/01/11 07:42:35;;;;;;;124.22;41.50;;;;;;;;;;5010270;28;20037;-68
2022/01/11 07:45:01;;;;;;;117.05;38.05;;;;;;;;;;4983689;28;20021;-68
2022/01/11 07:47:27;;;;;;;119.20;36.95;;;;;;;;;;5010834;28;20048;-68
2022/01/11 07:49:53;;;;;;;113.43;38.70;;;;;;;;;;5008371;28;20426;-68
2022/01/11 07:52:19;;;;;;;108.32;38.00;;;;;;;;;;5011172;28;20041;-67
2022/01/11 07:54:46;;;;;;;107.30;36.53;;;;;;;;;;5009130;28;20050;-68
2022/01/11 07:57:12;;;;;;;101.88;36.28;;;;;;;;;;5011672;28;20052;-68
2022/01/11 07:59:38;;;;;;;99.28;34.97;;;;;;;;;;5008548;28;20034;-68
2022/01/11 08:02:04;;;;;;;93.70;36.40;;;;;;;;;;5010431;28;20049;-68
2022/01/11 08:04:33;;;;;;;84.65;31.20;;;;;;;;;;5010765;28;20033;-68
2022/01/11 08:06:59;;;;;;;92.22;34.42;;;;;;;;;;5011470;28;20065;-68
2022/01/11 08:09:26;;;;;;;80.53;31.77;;;;;;;;;;5009838;28;20479;-68
2022/01/11 08:11:55;;;;;;;84.40;32.55;;;;;;;;;;4989952;28;20030;-68
2022/01/11 08:14:21;;;;;;;78.78;30.92;;;;;;;;;;5004905;28;20022;-68
2022/01/11 08:16:47;;;;;;;82.15;33.17;;;;;;;;;;5011277;28;20120;-68
2022/01/11 08:19:13;;;;;;;78.32;31.80;;;;;;;;;;5010201;28;20128;-68
2022/01/11 08:21:39;;;;;;;74.80;29.60;;;;;;;;;;5011564;28;20076;-68
2022/01/11 08:24:06;;;;;;;79.43;31.13;;;;;;;;;;5006224;28;20069;-68
2022/01/11 08:26:32;;;;;;;71.38;30.20;;;;;;;;;;5007711;28;20022;-68
2022/01/11 08:28:58;;;;;;;68.43;29.25;;;;;;;;;;5009914;28;20026;-68
2022/01/11 08:31:26;;;;;;;67.18;28.60;;;;;;;;;;5008832;28;20034;-68
2022/01/11 08:33:52;;;;;;;69.15;28.23;;;;;;;;;;5005334;28;20064;-68
2022/01/11 08:36:25;;;;;;;66.18;27.95;;;;;;;;;;5080202;27;20794;-68
2022/01/11 08:38:51;;;;;;;65.07;27.35;;;;;;;;;;5062622;28;20136;-67
2022/01/11 08:41:22;;;;;;;61.78;26.80;;;;;;;;;;5071800;28;20176;-67
2022/01/11 08:43:47;;;;;;;65.38;26.55;;;;;;;;;;5068831;28;20026;-69
2022/01/11 08:46:16;;;;;;;61.67;26.50;;;;;;;;;;5070658;28;20524;-67
2022/01/11 08:48:42;;;;;;;60.35;27.08;;;;;;;;;;5068436;28;20035;-67
2022/01/11 08:51:08;;;;;;;61.22;26.45;;;;;;;;;;5082670;28;20016;-67
2022/01/11 08:53:34;;;;;;;63.45;25.98;;;;;;;;;;5068778;28;20029;-67
2022/01/11 08:56:00;;;;;;;64.13;27.58;;;;;;;;;;5071214;28;20594;-68
2022/01/11 08:58:26;;;;;;;61.50;25.98;;;;;;;;;;5064336;28;20033;-67
2022/01/11 09:00:52;;;;;;;57.92;26.42;;;;;;;;;;5067848;28;20098;-68
2022/01/11 09:03:19;;;;;;;59.25;24.73;;;;;;;;;;5066184;28;20067;-68
2022/01/11 09:05:45;;;;;;;54.28;24.38;;;;;;;;;;5069406;28;20056;-67
2022/01/11 09:08:11;;;;;;;58.90;24.45;;;;;;;;;;5065305;28;20032;-67
2022/01/11 09:10:37;;;;;;;55.17;23.58;;;;;;;;;;5070480;28;20511;-68
2022/01/11 09:13:03;;;;;;;56.28;24.58;;;;;;;;;;5086688;28;20026;-68
2022/01/11 09:15:29;;;;;;;52.17;24.30;;;;;;;;;;5077084;28;20036;-68
2022/01/11 09:17:56;;;;;;;55.88;25.40;;;;;;;;;;5075044;28;20068;-67
2022/01/11 09:20:22;;;;;;;54.03;24.48;;;;;;;;;;5066621;28;20098;-68
2022/01/11 09:22:48;;;;;;;46.97;21.75;;;;;;;;;;5068505;28;20033;-67
2022/01/11 09:25:15;;;;;;;48.88;22.88;;;;;;;;;;5062567;28;20102;-68
2022/01/11 09:27:42;;;;;;;48.17;22.20;;;;;;;;;;5065770;28;20102;-68
2022/01/11 09:30:09;;;;;;;47.72;22.23;;;;;;;;;;5066636;28;20040;-67
2022/01/11 09:32:36;;;;;;;48.17;22.67;;;;;;;;;;5066578;28;20024;-67
2022/01/11 09:35:03;;;;;;;52.90;22.67;;;;;;;;;;5061100;28;20102;-67
2022/01/11 09:37:29;;;;;;;54.05;24.33;;;;;;;;;;5061420;28;20021;-67
2022/01/11 09:39:57;;;;;;;48.42;22.27;;;;;;;;;;5060822;28;20040;-67
2022/01/11 09:42:23;;;;;;;50.90;23.40;;;;;;;;;;5065894;28;20532;-67
2022/01/11 09:44:49;;;;;;;50.05;22.55;;;;;;;;;;5070123;28;20482;-67
2022/01/11 09:47:15;;;;;;;53.47;23.95;;;;;;;;;;5071274;28;20624;-68
2022/01/11 09:49:42;;;;;;;53.13;22.67;;;;;;;;;;5049057;28;20119;-68
2022/01/11 09:52:10;;;;;;;57.22;24.80;;;;;;;;;;5033205;28;20524;-67
2022/01/11 09:54:36;;;;;;;57.15;25.75;;;;;;;;;;5052816;28;20044;-67
2022/01/11 09:57:03;;;;;;;57.75;25.30;;;;;;;;;;5053303;28;20180;-67
2022/01/11 09:59:30;;;;;;;52.20;23.13;;;;;;;;;;5039555;28;20034;-67
2022/01/11 10:01:56;;;;;;;52.92;23.48;;;;;;;;;;5032873;28;20025;-68
2022/01/11 10:04:32;;;;;;;54.28;23.52;;;;;;;;;;5047267;28;20344;-67
2022/01/11 10:07:03;;;;;;;53.70;22.73;;;;;;;;;;5052934;28;20115;-67
2022/01/11 10:09:29;;;;;;;;;;;;;;;;;;5052918;28;20033;-67
2022/01/11 10:11:56;;;;;;;46.55;21.10;;;;;;;;;;5052778;28;19905;-68
2022/01/11 10:14:32;;;;;;;46.00;22.05;;;;;;;;;;5051804;28;20121;-68
2022/01/11 10:17:18;;;;;;;46.33;20.90;;;;;;;;;;5032022;28;20503;-68
2022/01/11 10:19:46;;;;;;;47.33;20.65;;;;;;;;;;5044579;28;20398;-68
2022/01/11 10:22:14;;;;;;;48.67;21.35;;;;;;;;;;5040737;28;20140;-68
2022/01/11 10:24:42;;;;;;;48.45;21.70;;;;;;;;;;5051798;28;20037;-67
2022/01/11 10:27:14;;;;;;;45.55;22.58;;;;;;;;;;5051722;28;20108;-67
2022/01/11 10:29:41;;;;;;;47.22;21.27;;;;;;;;;;5048155;28;20086;-67
2022/01/11 10:32:13;;;;;;;46.47;21.13;;;;;;;;;;5056464;28;20028;-68
2022/01/11 10:34:39;;;;;;;48.65;22.20;;;;;;;;;;5070418;28;20057;-67
2022/01/11 10:37:05;;;;;;;41.95;20.88;;;;;;;;;;5070060;28;20614;-67
2022/01/11 10:39:36;;;;;;;40.60;19.83;;;;;;;;;;5039654;28;20083;-67
2022/01/11 10:42:03;;;;;;;44.58;20.38;;;;;;;;;;5044966;28;20022;-68
2022/01/11 10:44:47;;;;;;;41.45;19.60;;;;;;;;;;5053734;28;20033;-67
2022/01/11 10:47:17;;;;;;;45.83;20.95;;;;;;;;;;5030459;28;20010;-68
2022/01/11 10:49:43;;;;;;;46.22;21.83;;;;;;;;;;5055757;28;20108;-67
2022/01/11 10:52:19;;;;;;;44.65;19.77;;;;;;;;;;5043459;28;20105;-67
2022/01/11 10:54:46;;;;;;;45.10;19.65;;;;;;;;;;5051207;28;20029;-67
2022/01/11 10:57:15;;;;;;;41.75;20.02;;;;;;;;;;5057030;28;20028;-67
2022/01/11 10:59:41;;;;;;;46.40;20.98;;;;;;;;;;5053523;28;20028;-67
2022/01/11 11:02:41;;;;;;;46.60;20.38;;;;;;;;;;5059892;28;20044;-67
2022/01/11 11:05:13;;;;;;;38.42;19.85;;;;;;;;;;5034923;28;20041;-67
2022/01/11 11:07:39;;;;;;;40.83;19.10;;;;;;;;;;5054113;28;20029;-68
2022/01/11 11:10:06;;;;;;;43.72;20.42;;;;;;;;;;5045169;28;20041;-67
2022/01/11 11:12:32;;;;;;;43.88;20.73;;;;;;;;;;5064225;28;20036;-67
2022/01/11 11:14:59;;;;;;;42.35;19.73;;;;;;;;;;5069429;28;20064;-67
2022/01/11 11:17:25;;;;;;;41.00;19.55;;;;;;;;;;5049330;28;20059;-67
2022/01/11 11:20:02;;;;;;;36.30;18.75;;;;;;;;;;5042083;28;20474;-67
2022/01/11 11:22:29;;;;;;;40.45;19.10;;;;;;;;;;5051614;28;20082;-66
2022/01/11 11:24:55;;;;;;;36.50;19.13;;;;;;;;;;5068993;28;20044;-67
2022/01/11 11:27:23;;;;;;;34.90;17.88;;;;;;;;;;5061949;28;20083;-67
2022/01/11 11:29:49;;;;;;;38.15;18.50;;;;;;;;;;5056612;28;20044;-68
2022/01/11 11:32:20;;;;;;;35.25;17.65;;;;;;;;;;5065778;28;20511;-66
2022/01/11 11:34:49;;;;;;;34.00;17.45;;;;;;;;;;5051176;28;20068;-67
2022/01/11 11:37:20;;;;;;;31.10;15.40;;;;;;;;;;5051402;28;20025;-67
2022/01/11 11:39:46;;;;;;;32.17;16.73;;;;;;;;;;5052352;28;20025;-67
2022/01/11 11:42:16;;;;;;;31.35;15.52;;;;;;;;;;5065617;28;20071;-68
2022/01/11 11:44:44;;;;;;;34.28;16.00;;;;;;;;;;5050705;28;20033;-67
2022/01/11 11:47:10;;;;;;;32.33;16.75;;;;;;;;;;5049324;28;20036;-67
2022/01/11 11:49:45;;;;;;;29.30;14.73;;;;;;;;;;5050282;28;20039;-67
2022/01/11 11:52:23;;;;;;;30.67;14.82;;;;;;;;;;5051999;28;20025;-67
2022/01/11 11:54:57;;;;;;;34.13;14.75;;;;;;;;;;5054231;28;20170;-69
2022/01/11 11:57:25;;;;;;;25.15;13.45;;;;;;;;;;5049733;28;20025;-66
2022/01/11 12:00:11;;;;;;;23.05;13.15;;;;;;;;;;5065423;28;20032;-67
2022/01/11 12:02:38;;;;;;;25.75;12.45;;;;;;;;;;5052050;28;20029;-67
2022/01/11 12:05:05;;;;;;;27.67;12.27;;;;;;;;;;5056202;28;20094;-67
2022/01/11 12:07:32;;;;;;;25.17;13.00;;;;;;;;;;5053964;28;20036;-67
2022/01/11 12:09:59;;;;;;;21.80;11.43;;;;;;;;;;5051569;28;20108;-67
2022/01/11 12:12:42;;;;;;;18.30;10.80;;;;;;;;;;5052166;28;20037;-67
2022/01/11 12:15:23;;;;;;;20.95;11.68;;;;;;;;;;5043985;28;20037;-66
2022/01/11 12:17:55;;;;;;;25.08;11.80;;;;;;;;;;5033025;28;20530;-67
2022/01/11 12:20:40;;;;;;;25.17;11.63;;;;;;;;;;5040951;28;20470;-67
2022/01/11 12:23:06;;;;;;;22.42;11.32;;;;;;;;;;5039053;28;20060;-67
2022/01/11 12:25:42;;;;;;;24.90;12.27;;;;;;;;;;5038549;28;20025;-67
2022/01/11 12:28:16;;;;;;;26.77;12.40;;;;;;;;;;5041077;28;20025;-67
2022/01/11 12:30:42;;;;;;;23.52;11.65;;;;;;;;;;5039845;28;20036;-69
2022/01/11 12:33:11;;;;;;;26.73;12.07;;;;;;;;;;5056755;28;20021;-68
2022/01/11 12:35:57;;;;;;;20.42;10.77;;;;;;;;;;5047540;28;20106;-68
2022/01/11 12:38:24;;;;;;;25.45;11.02;;;;;;;;;;5051549;28;20078;-65
2022/01/11 12:40:50;;;;;;;20.60;10.38;;;;;;;;;;5046275;28;20017;-66
2022/01/11 12:43:36;;;;;;;30.05;12.30;;;;;;;;;;5046912;28;20135;-66
2022/01/11 12:46:04;;;;;;;21.75;10.98;;;;;;;;;;5041598;28;20026;-65
2022/01/11 12:48:47;;;;;;;22.33;10.50;;;;;;;;;;5049676;28;20056;-66
2022/01/11 12:51:25;;;;;;;19.52;10.80;;;;;;;;;;5049807;28;20021;-66
2022/01/11 12:54:08;;;;;;;22.35;10.43;;;;;;;;;;5059088;28;20036;-66
2022/01/11 12:56:35;;;;;;;24.40;10.45;;;;;;;;;;5051191;28;20037;-66
2022/01/11 12:59:02;;;;;;;23.27;11.90;;;;;;;;;;5044777;28;20019;-65
2022/01/11 13:01:28;;;;;;;21.20;10.40;;;;;;;;;;5051812;28;20075;-65
2022/01/11 13:03:56;;;;;;;18.83;10.52;;;;;;;;;;5035924;28;20064;-65
2022/01/11 13:06:22;;;;;;;19.35;10.27;;;;;;;;;;5044096;28;20102;-65
2022/01/11 13:08:53;;;;;;;23.02;10.70;;;;;;;;;;5051142;28;20047;-65
2022/01/11 13:11:20;;;;;;;;;;;;;;;;;;5063732;28;20025;-66
2022/01/11 13:13:54;;;;;;;18.33;10.63;;;;;;;;;;5042369;28;20318;-65
2022/01/11 13:16:26;;;;;;;20.73;10.60;;;;;;;;;;5047600;28;20035;-66
2022/01/11 13:18:52;;;;;;;23.58;11.20;;;;;;;;;;5045250;28;20026;-65
2022/01/11 13:21:22;;;;;;;20.48;10.88;;;;;;;;;;5051498;28;20025;-65
2022/01/11 13:24:11;;;;;;;25.95;11.98;;;;;;;;;;5053539;28;20099;-66
2022/01/11 13:26:37;;;;;;;22.25;10.18;;;;;;;;;;5050759;28;20033;-66
2022/01/11 13:29:03;;;;;;;22.25;10.73;;;;;;;;;;5053376;28;20104;-66
2022/01/11 13:31:33;;;;;;;24.92;11.43;;;;;;;;;;5051332;28;20036;-66
2022/01/11 13:34:02;;;;;;;23.75;10.75;;;;;;;;;;5052914;28;20093;-66
2022/01/11 13:36:30;;;;;;;20.38;10.77;;;;;;;;;;5057091;28;20056;-66
2022/01/11 13:39:06;;;;;;;20.45;10.10;;;;;;;;;;5051365;28;20041;-65
2022/01/11 13:41:33;;;;;;;24.23;11.15;;;;;;;;;;5054600;28;20052;-66
2022/01/11 13:44:00;;;;;;;24.20;10.75;;;;;;;;;;5054722;28;20100;-65
2022/01/11 13:46:27;;;;;;;21.58;10.43;;;;;;;;;;5062551;28;20044;-65
2022/01/11 13:48:54;;;;;;;20.15;10.38;;;;;;;;;;5055063;28;20157;-65
2022/01/11 13:51:27;;;;;;;20.98;11.07;;;;;;;;;;5062924;28;20048;-68
2022/01/11 13:54:06;;;;;;;28.45;11.95;;;;;;;;;;5049626;28;20039;-65
2022/01/11 13:56:34;;;;;;;22.55;11.00;;;;;;;;;;5053038;28;20037;-67
2022/01/11 13:59:00;;;;;;;19.65;10.88;;;;;;;;;;5047719;28;20095;-66
2022/01/11 14:01:27;;;;;;;20.15;11.30;;;;;;;;;;5051273;28;20032;-66
2022/01/11 14:04:20;;;;;;;19.00;11.50;;;;;;;;;;5050244;28;20078;-66
2022/01/11 14:06:51;;;;;;;19.58;11.98;;;;;;;;;;5043834;28;20038;-66
2022/01/11 14:09:37;;;;;;;23.98;13.20;;;;;;;;;;5051208;28;20033;-66
2022/01/11 14:12:07;;;;;;;25.75;15.32;;;;;;;;;;5040285;28;20029;-67
2022/01/11 14:14:34;;;;;;;51.67;36.40;;;;;;;;;;5055400;28;20031;-67